Aviation Digital Data Service (ADDS)

Output produced by TAFs form (1536 UTC 25 June 2017)
found at http://aviationweather.gov/adds/tafs/
 
KFMN 251131Z 2512/2612 08009KT P6SM FEW250 
     FM252000 26010KT P6SM FEW100 
     FM252200 29011G20KT P6SM SCT120 
     FM260300 30007KT P6SM SCT250 
     FM260900 08008KT P6SM FEW250